createdAt,value
2019-02-24T00:03:29.571Z,102547.37
2019-02-24T00:08:31.133Z,102541.70
2019-02-24T00:13:32.815Z,102532.29
2019-02-24T00:18:34.470Z,102524.87
2019-02-24T00:23:36.044Z,102533.60
2019-02-24T00:28:37.596Z,102530.61
2019-02-24T00:33:39.156Z,102541.70
2019-02-24T00:38:40.726Z,102531.72
2019-02-24T00:43:42.349Z,102526.53
2019-02-24T00:48:43.904Z,102524.86
2019-02-24T00:53:45.476Z,102528.41
2019-02-24T00:58:47.048Z,102526.92
2019-02-24T01:03:48.593Z,102519.74
2019-02-24T01:08:50.144Z,102522.33
2019-02-24T01:13:51.703Z,102518.39
2019-02-24T01:18:53.391Z,102513.27
2019-02-24T01:23:54.961Z,102507.75
2019-02-24T01:28:56.535Z,102495.28
2019-02-24T01:33:58.118Z,102500.52
2019-02-24T01:38:59.692Z,102510.40
2019-02-24T01:44:01.381Z,102496.05
2019-02-24T01:49:03.080Z,102499.45
2019-02-24T01:54:04.656Z,102502.77
2019-02-24T01:59:06.324Z,102506.58
2019-02-24T02:04:07.868Z,102512.32
2019-02-24T02:09:09.581Z,102521.92
2019-02-24T02:14:11.130Z,102531.47
2019-02-24T02:19:12.684Z,102520.38
2019-02-24T02:24:14.470Z,102527.84
2019-02-24T02:29:17.363Z,102517.50
2019-02-24T02:34:18.911Z,102509.39
2019-02-24T02:39:20.484Z,102503.80
2019-02-24T02:44:22.045Z,102488.18
2019-02-24T02:49:23.614Z,102469.67
2019-02-24T02:54:25.176Z,102452.84
2019-02-24T02:59:26.828Z,102463.09
2019-02-24T03:04:28.381Z,102469.03
2019-02-24T03:09:29.950Z,102485.95
2019-02-24T03:14:31.540Z,102495.09
2019-02-24T03:19:33.146Z,102494.41
2019-02-24T03:24:34.718Z,102496.16
2019-02-24T03:29:36.334Z,102481.10
2019-02-24T03:34:38.881Z,102483.30
2019-02-24T03:39:40.432Z,102481.33
2019-02-24T03:44:41.995Z,102482.27
2019-02-24T03:49:43.557Z,102490.46
2019-02-24T03:54:45.227Z,102490.03
2019-02-24T03:59:46.777Z,102486.98
2019-02-24T04:04:48.466Z,102483.20
2019-02-24T04:09:50.217Z,102488.46
2019-02-24T04:14:51.770Z,102488.94
2019-02-24T04:19:53.316Z,102486.42
2019-02-24T04:24:54.890Z,102486.97
2019-02-24T04:29:56.553Z,102490.86
2019-02-24T04:34:58.115Z,102478.02
2019-02-24T04:39:59.697Z,102487.00
2019-02-24T04:45:01.267Z,102470.91
2019-02-24T04:50:03.006Z,102469.44
2019-02-24T04:55:04.812Z,102484.06
2019-02-24T05:00:06.562Z,102490.36
2019-02-24T05:05:08.111Z,102494.52
2019-02-24T05:10:09.763Z,102477.70
2019-02-24T05:15:11.422Z,102472.91
2019-02-24T05:20:12.979Z,102468.08
2019-02-24T05:25:14.543Z,102458.15
2019-02-24T05:30:16.196Z,102445.41
2019-02-24T05:35:17.768Z,102445.76
2019-02-24T05:40:19.317Z,102430.97
2019-02-24T05:45:20.864Z,102414.14
2019-02-24T05:50:22.456Z,102415.59
2019-02-24T05:55:24.115Z,102409.94
2019-02-24T06:00:25.679Z,102415.50
2019-02-24T06:05:27.234Z,102415.70
2019-02-24T06:10:28.811Z,102406.33
2019-02-24T06:15:30.374Z,102412.52
2019-02-24T06:20:31.926Z,102414.14
2019-02-24T06:25:33.499Z,102416.53
2019-02-24T06:30:35.067Z,102414.20
2019-02-24T06:35:36.639Z,102413.17
2019-02-24T06:40:38.217Z,102424.27
2019-02-24T06:45:39.771Z,102432.46
2019-02-24T06:50:56.752Z,102424.29
2019-02-24T06:55:58.323Z,102427.28
2019-02-24T07:00:59.973Z,102430.14
2019-02-24T07:06:01.535Z,102433.63
2019-02-24T07:11:03.129Z,102442.61
2019-02-24T07:16:04.687Z,102441.86
2019-02-24T07:21:06.360Z,102455.67
2019-02-24T07:26:07.911Z,102448.17
2019-02-24T07:31:09.477Z,102459.21
2019-02-24T07:36:11.047Z,102451.98
2019-02-24T07:41:12.724Z,102449.27
2019-02-24T07:46:14.305Z,102444.92
2019-02-24T07:51:15.875Z,102436.41
2019-02-24T07:56:17.456Z,102431.31
2019-02-24T08:01:19.167Z,102426.63
2019-02-24T08:06:20.728Z,102429.53
2019-02-24T08:11:22.416Z,102431.99
2019-02-24T08:16:23.962Z,102438.23
2019-02-24T08:21:25.972Z,102435.72
2019-02-24T08:26:27.548Z,102447.07
2019-02-24T08:31:29.128Z,102441.19
2019-02-24T08:36:30.683Z,102458.27
2019-02-24T08:41:32.237Z,102470.83
2019-02-24T08:46:33.761Z,102459.60
2019-02-24T08:51:35.312Z,102458.64
2019-02-24T08:56:36.854Z,102470.45
2019-02-24T09:01:38.407Z,102467.66
2019-02-24T09:06:39.986Z,102476.14
2019-02-24T09:11:41.600Z,102465.77
2019-02-24T09:16:43.178Z,102482.76
2019-02-24T09:21:44.731Z,102494.80
2019-02-24T09:26:46.305Z,102509.21
2019-02-24T09:31:47.882Z,102517.99
2019-02-24T09:36:49.431Z,102521.53
2019-02-24T09:41:50.996Z,102508.69
2019-02-24T09:46:52.591Z,102505.48
2019-02-24T09:51:54.142Z,102490.42
2019-02-24T09:56:55.725Z,102485.50
2019-02-24T10:01:57.288Z,102487.91
2019-02-24T10:06:58.866Z,102485.98
2019-02-24T10:12:00.541Z,102482.11
2019-02-24T10:17:02.217Z,102484.38
2019-02-24T10:22:03.913Z,102483.92
2019-02-24T10:27:05.483Z,102488.72
2019-02-24T10:32:07.051Z,102489.31
2019-02-24T10:37:08.706Z,102483.09
2019-02-24T10:42:10.390Z,102472.52
2019-02-24T10:47:11.962Z,102471.06
2019-02-24T10:52:13.537Z,102453.69
2019-02-24T10:57:15.101Z,102444.41
2019-02-24T11:02:16.673Z,102439.33
2019-02-24T11:07:18.232Z,102428.72
2019-02-24T11:12:19.912Z,102429.23
2019-02-24T11:17:21.654Z,102442.11
2019-02-24T11:22:23.208Z,102440.64
2019-02-24T11:27:24.945Z,102445.41
2019-02-24T11:32:26.532Z,102449.26
2019-02-24T11:37:28.269Z,102438.45
2019-02-24T11:42:29.838Z,102440.32
2019-02-24T11:47:31.400Z,102445.98
2019-02-24T11:52:32.961Z,102447.72
2019-02-24T11:57:34.614Z,102446.79
2019-02-24T12:02:36.295Z,102432.98
2019-02-24T12:07:37.853Z,102430.50
2019-02-24T12:12:39.520Z,102445.92
2019-02-24T12:17:41.187Z,102445.92
2019-02-24T12:22:42.719Z,102440.86
2019-02-24T12:27:44.293Z,102444.89
2019-02-24T12:32:45.874Z,102443.87
2019-02-24T12:37:47.557Z,102438.16
2019-02-24T12:42:49.249Z,102438.33
2019-02-24T12:47:50.842Z,102424.98
2019-02-24T12:52:52.488Z,102429.77
2019-02-24T12:57:54.053Z,102415.22
2019-02-24T13:02:55.681Z,102397.30
2019-02-24T13:07:58.069Z,102389.28
2019-02-24T13:12:59.808Z,102404.88
2019-02-24T13:18:01.520Z,102406.94
2019-02-24T13:23:03.211Z,102402.83
2019-02-24T13:28:05.152Z,102394.95
2019-02-24T13:33:07.548Z,102394.14
2019-02-24T13:38:09.462Z,102398.20
2019-02-24T13:43:11.274Z,102394.69
2019-02-24T13:48:12.971Z,102392.10
2019-02-24T13:53:14.589Z,102382.19
2019-02-24T13:58:16.230Z,102368.77
2019-02-24T14:03:17.915Z,102369.84
2019-02-24T14:08:19.684Z,102376.80
2019-02-24T14:13:21.381Z,102366.23
2019-02-24T14:18:23.010Z,102364.91
2019-02-24T14:23:24.678Z,102377.05
2019-02-24T14:28:26.268Z,102379.90
2019-02-24T14:33:29.162Z,102375.49
2019-02-24T14:38:30.864Z,102371.59
2019-02-24T14:43:32.424Z,102372.17
2019-02-24T14:48:34.132Z,102374.70
2019-02-24T14:53:35.872Z,102368.17
2019-02-24T14:58:37.565Z,102373.66
2019-02-24T15:03:39.170Z,102378.70
2019-02-24T15:08:40.751Z,102378.60
2019-02-24T15:13:42.309Z,102371.75
2019-02-24T15:18:43.910Z,102374.62
2019-02-24T15:23:45.464Z,102374.62
2019-02-24T15:28:47.045Z,102370.70
2019-02-24T15:33:48.619Z,102372.06
2019-02-24T15:38:50.295Z,102365.47
2019-02-24T15:43:54.430Z,102361.30
2019-02-24T15:48:55.987Z,102364.84
2019-02-24T15:53:57.693Z,102362.80
2019-02-24T15:58:59.254Z,102362.73
2019-02-24T16:04:00.802Z,102358.20
2019-02-24T16:09:02.366Z,102354.33
2019-02-24T16:14:04.071Z,102357.53
2019-02-24T16:19:05.704Z,102349.48
2019-02-24T16:24:07.403Z,102350.23
2019-02-24T16:29:08.987Z,102359.31
2019-02-24T16:34:10.572Z,102357.05
2019-02-24T16:39:12.126Z,102347.72
2019-02-24T16:44:13.824Z,102345.48
2019-02-24T16:49:15.379Z,102349.48
2019-02-24T16:54:16.974Z,102353.20
2019-02-24T16:59:18.668Z,102353.66
2019-02-24T17:04:20.209Z,102357.39
2019-02-24T17:09:21.828Z,102359.23
2019-02-24T17:14:24.872Z,102354.69
2019-02-24T17:19:26.565Z,102364.58
2019-02-24T17:24:28.147Z,102363.59
2019-02-24T17:34:47.853Z,102372.16
2019-02-24T17:39:49.471Z,102380.89
2019-02-24T17:44:51.088Z,102381.74
2019-02-24T17:49:52.677Z,102386.09
2019-02-24T17:54:54.277Z,102391.67
2019-02-24T17:59:55.957Z,102399.87
2019-02-24T18:04:57.632Z,102407.98
2019-02-24T18:09:59.213Z,102409.94
2019-02-24T18:15:00.942Z,102401.58
2019-02-24T18:20:02.759Z,102400.19
2019-02-24T18:25:05.696Z,102398.34
2019-02-24T18:30:13.948Z,102399.13
2019-02-24T18:35:15.538Z,102388.83
2019-02-24T18:40:17.230Z,102380.70
2019-02-24T18:45:18.953Z,102382.53
2019-02-24T18:50:20.535Z,102374.77
2019-02-24T18:55:22.210Z,102368.30
2019-02-24T19:00:23.886Z,102369.41
2019-02-24T19:05:25.464Z,102371.59
2019-02-24T19:10:27.430Z,102356.53
2019-02-24T19:15:29.029Z,102359.72
2019-02-24T19:20:30.757Z,102358.33
2019-02-24T19:25:32.427Z,102369.37
2019-02-24T19:30:34.155Z,102369.66
2019-02-24T19:35:35.881Z,102371.88
2019-02-24T19:40:37.481Z,102384.28
2019-02-24T19:45:39.059Z,102383.19
2019-02-24T19:50:40.633Z,102377.08
2019-02-24T19:55:42.322Z,102385.58
2019-02-24T20:00:44.017Z,102388.89
2019-02-24T20:05:45.611Z,102395.94
2019-02-24T20:10:47.196Z,102402.84
2019-02-24T20:15:48.791Z,102402.20
2019-02-24T20:20:50.401Z,102412.73
2019-02-24T20:25:51.988Z,102408.14
2019-02-24T20:30:53.570Z,102415.06
2019-02-24T20:35:55.156Z,102411.84
2019-02-24T20:40:56.724Z,102412.84
2019-02-24T20:45:58.337Z,102404.89
2019-02-24T20:50:59.962Z,102409.66
2019-02-24T20:56:01.585Z,102403.80
2019-02-24T21:01:05.365Z,102392.72
2019-02-24T21:06:07.064Z,102394.02
2019-02-24T21:11:08.676Z,102385.55
2019-02-24T21:16:10.250Z,102394.80
2019-02-24T21:21:11.833Z,102398.01
2019-02-24T21:26:13.579Z,102396.58
2019-02-24T21:31:15.269Z,102405.05
2019-02-24T21:36:16.981Z,102394.35
2019-02-24T21:41:18.574Z,102395.40
2019-02-24T21:46:20.182Z,102401.00
2019-02-24T21:51:21.961Z,102406.95
2019-02-24T21:56:23.554Z,102403.29
2019-02-24T22:01:25.247Z,102412.47
2019-02-24T22:06:26.838Z,102407.59
2019-02-24T22:11:28.432Z,102405.63
2019-02-24T22:16:30.006Z,102406.12
2019-02-24T22:21:31.589Z,102417.55
2019-02-24T22:26:33.183Z,102418.54
2019-02-24T22:31:34.767Z,102420.98
2019-02-24T22:36:36.323Z,102412.00
2019-02-24T22:41:37.903Z,102421.03
2019-02-24T22:46:39.494Z,102418.61
2019-02-24T22:51:41.110Z,102427.64
2019-02-24T22:56:42.833Z,102441.45
2019-02-24T23:01:45.065Z,102456.74
2019-02-24T23:06:46.653Z,102445.84
2019-02-24T23:11:48.383Z,102440.27
2019-02-24T23:16:50.049Z,102431.48
2019-02-24T23:21:51.796Z,102424.97
2019-02-24T23:26:53.392Z,102425.12
2019-02-24T23:31:55.161Z,102407.70
2019-02-24T23:36:56.704Z,102412.44
2019-02-24T23:41:58.388Z,102413.03
2019-02-24T23:47:00.195Z,102408.02
2019-02-24T23:52:01.780Z,102404.66
2019-02-24T23:57:03.488Z,102407.16
